sensor_id;sensor_type;location;lat;lon;timestamp;temperature;humidity
41720;DHT22;27405;53.316;-6.294;2023-05-20T00:01:04;15.40;88.70
41720;DHT22;27405;53.316;-6.294;2023-05-20T00:03:29;15.40;88.60
41720;DHT22;27405;53.316;-6.294;2023-05-20T00:05:55;15.40;88.60
41720;DHT22;27405;53.316;-6.294;2023-05-20T00:08:21;15.40;88.60
41720;DHT22;27405;53.316;-6.294;2023-05-20T00:10:46;15.40;88.60
41720;DHT22;27405;53.316;-6.294;2023-05-20T00:13:12;15.40;88.50
41720;DHT22;27405;53.316;-6.294;2023-05-20T00:15:38;15.50;88.60
41720;DHT22;27405;53.316;-6.294;2023-05-20T00:18:03;15.40;88.70
41720;DHT22;27405;53.316;-6.294;2023-05-20T00:20:29;15.50;88.70
41720;DHT22;27405;53.316;-6.294;2023-05-20T00:22:55;15.50;88.50
41720;DHT22;27405;53.316;-6.294;2023-05-20T00:25:21;15.50;88.50
41720;DHT22;27405;53.316;-6.294;2023-05-20T00:27:47;15.50;88.40
41720;DHT22;27405;53.316;-6.294;2023-05-20T00:30:12;15.50;88.40
41720;DHT22;27405;53.316;-6.294;2023-05-20T00:32:38;15.50;88.30
41720;DHT22;27405;53.316;-6.294;2023-05-20T00:35:04;15.40;88.20
41720;DHT22;27405;53.316;-6.294;2023-05-20T00:37:30;15.40;88.10
41720;DHT22;27405;53.316;-6.294;2023-05-20T00:39:56;15.40;88.20
41720;DHT22;27405;53.316;-6.294;2023-05-20T00:42:24;15.40;88.20
41720;DHT22;27405;53.316;-6.294;2023-05-20T00:44:50;15.40;88.20
41720;DHT22;27405;53.316;-6.294;2023-05-20T00:47:17;15.30;88.30
41720;DHT22;27405;53.316;-6.294;2023-05-20T00:49:48;15.30;88.50
41720;DHT22;27405;53.316;-6.294;2023-05-20T00:52:14;15.30;88.70
41720;DHT22;27405;53.316;-6.294;2023-05-20T00:54:40;15.30;88.80
41720;DHT22;27405;53.316;-6.294;2023-05-20T00:57:07;15.30;88.90
41720;DHT22;27405;53.316;-6.294;2023-05-20T00:59:34;15.30;89.10
41720;DHT22;27405;53.316;-6.294;2023-05-20T01:02:01;15.30;89.20
41720;DHT22;27405;53.316;-6.294;2023-05-20T01:04:28;15.20;89.30
41720;DHT22;27405;53.316;-6.294;2023-05-20T01:06:54;15.30;89.60
41720;DHT22;27405;53.316;-6.294;2023-05-20T01:09:20;15.30;89.80
41720;DHT22;27405;53.316;-6.294;2023-05-20T01:12:00;15.30;89.90
41720;DHT22;27405;53.316;-6.294;2023-05-20T01:14:30;15.30;89.90
41720;DHT22;27405;53.316;-6.294;2023-05-20T01:16:58;15.30;89.90
41720;DHT22;27405;53.316;-6.294;2023-05-20T01:19:45;15.30;90.00
41720;DHT22;27405;53.316;-6.294;2023-05-20T01:22:13;15.30;90.00
41720;DHT22;27405;53.316;-6.294;2023-05-20T01:24:44;15.30;90.00
41720;DHT22;27405;53.316;-6.294;2023-05-20T01:27:11;15.30;90.10
41720;DHT22;27405;53.316;-6.294;2023-05-20T01:29:38;15.30;90.20
41720;DHT22;27405;53.316;-6.294;2023-05-20T01:32:07;15.40;90.20
41720;DHT22;27405;53.316;-6.294;2023-05-20T01:34:35;15.30;90.20
41720;DHT22;27405;53.316;-6.294;2023-05-20T01:37:03;15.30;90.20
41720;DHT22;27405;53.316;-6.294;2023-05-20T01:39:33;15.40;90.30
41720;DHT22;27405;53.316;-6.294;2023-05-20T01:42:01;15.30;90.30
41720;DHT22;27405;53.316;-6.294;2023-05-20T01:44:28;15.30;90.20
41720;DHT22;27405;53.316;-6.294;2023-05-20T01:46:54;15.40;90.20
41720;DHT22;27405;53.316;-6.294;2023-05-20T01:49:19;15.30;90.20
41720;DHT22;27405;53.316;-6.294;2023-05-20T01:51:45;15.30;90.30
41720;DHT22;27405;53.316;-6.294;2023-05-20T01:54:11;15.30;90.20
41720;DHT22;27405;53.316;-6.294;2023-05-20T01:56:36;15.30;90.50
41720;DHT22;27405;53.316;-6.294;2023-05-20T01:59:02;15.20;90.30
41720;DHT22;27405;53.316;-6.294;2023-05-20T02:01:28;15.20;90.40
41720;DHT22;27405;53.316;-6.294;2023-05-20T02:03:53;15.20;90.50
41720;DHT22;27405;53.316;-6.294;2023-05-20T02:06:19;15.20;90.70
41720;DHT22;27405;53.316;-6.294;2023-05-20T02:08:45;15.10;90.90
41720;DHT22;27405;53.316;-6.294;2023-05-20T02:11:10;15.10;91.10
41720;DHT22;27405;53.316;-6.294;2023-05-20T02:13:36;15.10;91.30
41720;DHT22;27405;53.316;-6.294;2023-05-20T02:16:02;15.00;91.50
41720;DHT22;27405;53.316;-6.294;2023-05-20T02:18:27;15.00;91.70
41720;DHT22;27405;53.316;-6.294;2023-05-20T02:20:54;14.90;91.80
41720;DHT22;27405;53.316;-6.294;2023-05-20T02:23:20;14.90;91.90
41720;DHT22;27405;53.316;-6.294;2023-05-20T02:25:45;14.90;92.00
41720;DHT22;27405;53.316;-6.294;2023-05-20T02:28:11;14.90;92.10
41720;DHT22;27405;53.316;-6.294;2023-05-20T02:30:37;14.90;92.30
41720;DHT22;27405;53.316;-6.294;2023-05-20T02:33:03;14.80;92.30
41720;DHT22;27405;53.316;-6.294;2023-05-20T02:35:29;14.90;92.50
41720;DHT22;27405;53.316;-6.294;2023-05-20T02:37:55;14.80;92.50
41720;DHT22;27405;53.316;-6.294;2023-05-20T02:40:21;14.80;92.60
41720;DHT22;27405;53.316;-6.294;2023-05-20T02:42:47;14.80;92.70
41720;DHT22;27405;53.316;-6.294;2023-05-20T02:45:13;14.80;93.10
41720;DHT22;27405;53.316;-6.294;2023-05-20T02:47:38;14.80;92.90
41720;DHT22;27405;53.316;-6.294;2023-05-20T02:50:04;14.80;92.90
41720;DHT22;27405;53.316;-6.294;2023-05-20T02:52:31;14.80;93.00
41720;DHT22;27405;53.316;-6.294;2023-05-20T02:54:57;14.70;93.00
41720;DHT22;27405;53.316;-6.294;2023-05-20T02:57:23;14.80;93.10
41720;DHT22;27405;53.316;-6.294;2023-05-20T02:59:49;14.70;93.20
41720;DHT22;27405;53.316;-6.294;2023-05-20T03:02:14;14.70;93.30
41720;DHT22;27405;53.316;-6.294;2023-05-20T03:04:40;14.70;93.30
41720;DHT22;27405;53.316;-6.294;2023-05-20T03:07:06;14.70;93.40
41720;DHT22;27405;53.316;-6.294;2023-05-20T03:09:32;14.70;93.40
41720;DHT22;27405;53.316;-6.294;2023-05-20T03:11:57;14.70;93.40
41720;DHT22;27405;53.316;-6.294;2023-05-20T03:14:23;14.70;93.50
41720;DHT22;27405;53.316;-6.294;2023-05-20T03:16:49;14.70;93.50
41720;DHT22;27405;53.316;-6.294;2023-05-20T03:19:14;14.70;93.60
41720;DHT22;27405;53.316;-6.294;2023-05-20T03:21:40;14.70;93.60
41720;DHT22;27405;53.316;-6.294;2023-05-20T03:24:08;14.70;93.60
41720;DHT22;27405;53.316;-6.294;2023-05-20T03:26:35;14.70;93.60
41720;DHT22;27405;53.316;-6.294;2023-05-20T03:29:02;14.70;93.60
41720;DHT22;27405;53.316;-6.294;2023-05-20T03:31:27;14.60;93.60
41720;DHT22;27405;53.316;-6.294;2023-05-20T03:33:53;14.60;93.60
41720;DHT22;27405;53.316;-6.294;2023-05-20T03:36:19;14.60;93.60
41720;DHT22;27405;53.316;-6.294;2023-05-20T03:38:45;14.60;93.60
41720;DHT22;27405;53.316;-6.294;2023-05-20T03:41:11;14.60;93.60
41720;DHT22;27405;53.316;-6.294;2023-05-20T03:43:36;14.60;93.50
41720;DHT22;27405;53.316;-6.294;2023-05-20T03:46:02;14.60;93.50
41720;DHT22;27405;53.316;-6.294;2023-05-20T03:48:28;14.60;93.50
41720;DHT22;27405;53.316;-6.294;2023-05-20T03:50:53;14.60;93.80
41720;DHT22;27405;53.316;-6.294;2023-05-20T03:53:19;14.60;93.50
41720;DHT22;27405;53.316;-6.294;2023-05-20T03:55:45;14.60;93.60
41720;DHT22;27405;53.316;-6.294;2023-05-20T03:58:10;14.60;93.60
41720;DHT22;27405;53.316;-6.294;2023-05-20T04:00:37;14.50;93.60
41720;DHT22;27405;53.316;-6.294;2023-05-20T04:03:04;14.60;93.70
41720;DHT22;27405;53.316;-6.294;2023-05-20T04:05:30;14.50;93.70
41720;DHT22;27405;53.316;-6.294;2023-05-20T04:07:56;14.50;93.70
41720;DHT22;27405;53.316;-6.294;2023-05-20T04:10:22;14.50;93.70
41720;DHT22;27405;53.316;-6.294;2023-05-20T04:12:48;14.50;93.70
41720;DHT22;27405;53.316;-6.294;2023-05-20T04:15:14;14.50;93.70
41720;DHT22;27405;53.316;-6.294;2023-05-20T04:17:40;14.50;93.80
41720;DHT22;27405;53.316;-6.294;2023-05-20T04:20:07;14.50;93.80
41720;DHT22;27405;53.316;-6.294;2023-05-20T04:22:35;14.50;93.90
41720;DHT22;27405;53.316;-6.294;2023-05-20T04:25:01;14.50;93.90
41720;DHT22;27405;53.316;-6.294;2023-05-20T04:27:29;14.50;93.90
41720;DHT22;27405;53.316;-6.294;2023-05-20T04:29:55;14.50;93.90
41720;DHT22;27405;53.316;-6.294;2023-05-20T04:32:23;14.40;94.00
41720;DHT22;27405;53.316;-6.294;2023-05-20T04:34:48;14.40;94.00
41720;DHT22;27405;53.316;-6.294;2023-05-20T04:37:15;14.50;94.00
41720;DHT22;27405;53.316;-6.294;2023-05-20T04:39:40;14.40;94.00
41720;DHT22;27405;53.316;-6.294;2023-05-20T04:42:08;14.50;94.10
41720;DHT22;27405;53.316;-6.294;2023-05-20T04:44:33;14.50;94.10
41720;DHT22;27405;53.316;-6.294;2023-05-20T04:46:59;14.40;94.10
41720;DHT22;27405;53.316;-6.294;2023-05-20T04:49:25;14.50;94.10
41720;DHT22;27405;53.316;-6.294;2023-05-20T04:51:53;14.50;94.20
41720;DHT22;27405;53.316;-6.294;2023-05-20T04:54:20;14.50;94.50
41720;DHT22;27405;53.316;-6.294;2023-05-20T04:56:46;14.50;94.20
41720;DHT22;27405;53.316;-6.294;2023-05-20T04:59:12;14.50;94.30
41720;DHT22;27405;53.316;-6.294;2023-05-20T05:01:37;14.40;94.30
41720;DHT22;27405;53.316;-6.294;2023-05-20T05:04:03;14.50;94.40
41720;DHT22;27405;53.316;-6.294;2023-05-20T05:06:29;14.50;94.40
41720;DHT22;27405;53.316;-6.294;2023-05-20T05:08:55;14.50;94.40
41720;DHT22;27405;53.316;-6.294;2023-05-20T05:11:20;14.50;94.50
41720;DHT22;27405;53.316;-6.294;2023-05-20T05:13:46;14.50;94.50
41720;DHT22;27405;53.316;-6.294;2023-05-20T05:16:12;14.50;94.50
41720;DHT22;27405;53.316;-6.294;2023-05-20T05:18:37;14.50;94.60
41720;DHT22;27405;53.316;-6.294;2023-05-20T05:21:04;14.50;94.60
41720;DHT22;27405;53.316;-6.294;2023-05-20T05:23:30;14.50;94.70
41720;DHT22;27405;53.316;-6.294;2023-05-20T05:25:56;14.50;94.70
41720;DHT22;27405;53.316;-6.294;2023-05-20T05:28:22;14.50;94.70
41720;DHT22;27405;53.316;-6.294;2023-05-20T05:30:48;14.50;94.70
41720;DHT22;27405;53.316;-6.294;2023-05-20T05:33:14;14.50;94.70
41720;DHT22;27405;53.316;-6.294;2023-05-20T05:35:41;14.50;94.70
41720;DHT22;27405;53.316;-6.294;2023-05-20T05:38:07;14.60;94.80
41720;DHT22;27405;53.316;-6.294;2023-05-20T05:40:33;14.60;94.80
41720;DHT22;27405;53.316;-6.294;2023-05-20T05:42:58;14.60;94.90
41720;DHT22;27405;53.316;-6.294;2023-05-20T05:45:24;14.60;94.90
41720;DHT22;27405;53.316;-6.294;2023-05-20T05:47:50;14.60;94.90
41720;DHT22;27405;53.316;-6.294;2023-05-20T05:50:16;14.60;94.90
41720;DHT22;27405;53.316;-6.294;2023-05-20T05:52:41;14.70;95.00
41720;DHT22;27405;53.316;-6.294;2023-05-20T05:55:09;14.70;95.00
41720;DHT22;27405;53.316;-6.294;2023-05-20T05:57:35;14.70;95.00
41720;DHT22;27405;53.316;-6.294;2023-05-20T06:00:00;14.80;95.00
41720;DHT22;27405;53.316;-6.294;2023-05-20T06:02:26;14.80;95.00
41720;DHT22;27405;53.316;-6.294;2023-05-20T06:04:52;14.80;95.00
41720;DHT22;27405;53.316;-6.294;2023-05-20T06:07:18;14.90;94.90
41720;DHT22;27405;53.316;-6.294;2023-05-20T06:09:44;14.80;94.90
41720;DHT22;27405;53.316;-6.294;2023-05-20T06:12:10;14.80;94.90
41720;DHT22;27405;53.316;-6.294;2023-05-20T06:14:35;14.90;95.00
41720;DHT22;27405;53.316;-6.294;2023-05-20T06:17:02;14.90;95.00
41720;DHT22;27405;53.316;-6.294;2023-05-20T06:19:27;14.90;94.90
41720;DHT22;27405;53.316;-6.294;2023-05-20T06:21:53;14.90;94.90
41720;DHT22;27405;53.316;-6.294;2023-05-20T06:24:19;14.90;94.90
41720;DHT22;27405;53.316;-6.294;2023-05-20T06:26:44;14.90;94.90
41720;DHT22;27405;53.316;-6.294;2023-05-20T06:29:10;14.90;95.00
41720;DHT22;27405;53.316;-6.294;2023-05-20T06:31:40;14.90;94.90
41720;DHT22;27405;53.316;-6.294;2023-05-20T06:34:05;14.90;95.00
41720;DHT22;27405;53.316;-6.294;2023-05-20T06:36:31;14.90;95.00
41720;DHT22;27405;53.316;-6.294;2023-05-20T06:38:57;15.00;95.00
41720;DHT22;27405;53.316;-6.294;2023-05-20T06:41:22;15.00;95.00
41720;DHT22;27405;53.316;-6.294;2023-05-20T06:43:48;15.00;95.00
41720;DHT22;27405;53.316;-6.294;2023-05-20T06:46:14;15.00;94.90
41720;DHT22;27405;53.316;-6.294;2023-05-20T06:48:39;15.00;94.90
41720;DHT22;27405;53.316;-6.294;2023-05-20T06:51:08;15.00;94.80
41720;DHT22;27405;53.316;-6.294;2023-05-20T06:53:34;15.00;94.80
41720;DHT22;27405;53.316;-6.294;2023-05-20T06:56:00;15.00;94.80
41720;DHT22;27405;53.316;-6.294;2023-05-20T06:58:27;15.00;94.70
41720;DHT22;27405;53.316;-6.294;2023-05-20T07:00:53;15.10;94.70
41720;DHT22;27405;53.316;-6.294;2023-05-20T07:03:19;15.00;94.70
41720;DHT22;27405;53.316;-6.294;2023-05-20T07:05:45;15.10;94.60
41720;DHT22;27405;53.316;-6.294;2023-05-20T07:08:10;15.10;94.60
41720;DHT22;27405;53.316;-6.294;2023-05-20T07:10:36;15.10;94.60
41720;DHT22;27405;53.316;-6.294;2023-05-20T07:13:02;15.20;94.60
41720;DHT22;27405;53.316;-6.294;2023-05-20T07:15:27;15.20;94.60
41720;DHT22;27405;53.316;-6.294;2023-05-20T07:17:53;15.20;94.60
41720;DHT22;27405;53.316;-6.294;2023-05-20T07:20:19;15.30;94.60
41720;DHT22;27405;53.316;-6.294;2023-05-20T07:22:45;15.30;94.60
41720;DHT22;27405;53.316;-6.294;2023-05-20T07:25:13;15.30;94.60
41720;DHT22;27405;53.316;-6.294;2023-05-20T07:27:39;15.40;94.60
41720;DHT22;27405;53.316;-6.294;2023-05-20T07:30:05;15.40;94.60
41720;DHT22;27405;53.316;-6.294;2023-05-20T07:32:31;15.40;94.60
41720;DHT22;27405;53.316;-6.294;2023-05-20T07:34:57;15.40;94.50
41720;DHT22;27405;53.316;-6.294;2023-05-20T07:37:22;15.50;94.50
41720;DHT22;27405;53.316;-6.294;2023-05-20T07:39:48;15.50;94.50
41720;DHT22;27405;53.316;-6.294;2023-05-20T07:42:13;15.50;94.50
41720;DHT22;27405;53.316;-6.294;2023-05-20T07:44:39;15.50;94.40
41720;DHT22;27405;53.316;-6.294;2023-05-20T07:47:05;15.50;94.40
41720;DHT22;27405;53.316;-6.294;2023-05-20T07:49:31;15.60;94.50
41720;DHT22;27405;53.316;-6.294;2023-05-20T07:51:56;15.70;94.50
41720;DHT22;27405;53.316;-6.294;2023-05-20T07:54:22;15.70;94.30
41720;DHT22;27405;53.316;-6.294;2023-05-20T07:56:48;15.70;94.30
41720;DHT22;27405;53.316;-6.294;2023-05-20T07:59:13;15.70;94.30
41720;DHT22;27405;53.316;-6.294;2023-05-20T08:01:40;15.80;94.30
41720;DHT22;27405;53.316;-6.294;2023-05-20T08:04:06;15.80;94.10
41720;DHT22;27405;53.316;-6.294;2023-05-20T08:06:32;15.80;94.10
41720;DHT22;27405;53.316;-6.294;2023-05-20T08:09:00;15.80;94.00
41720;DHT22;27405;53.316;-6.294;2023-05-20T08:11:26;15.80;94.10
41720;DHT22;27405;53.316;-6.294;2023-05-20T08:13:52;15.90;94.10
41720;DHT22;27405;53.316;-6.294;2023-05-20T08:16:19;15.90;94.10
41720;DHT22;27405;53.316;-6.294;2023-05-20T08:18:45;15.90;94.10
41720;DHT22;27405;53.316;-6.294;2023-05-20T08:21:11;16.00;94.10
41720;DHT22;27405;53.316;-6.294;2023-05-20T08:23:36;15.90;94.10
41720;DHT22;27405;53.316;-6.294;2023-05-20T08:26:02;16.00;94.10
41720;DHT22;27405;53.316;-6.294;2023-05-20T08:28:29;16.10;94.10
41720;DHT22;27405;53.316;-6.294;2023-05-20T08:30:55;16.10;94.00
41720;DHT22;27405;53.316;-6.294;2023-05-20T08:33:22;16.20;94.10
41720;DHT22;27405;53.316;-6.294;2023-05-20T08:35:48;16.20;94.00
41720;DHT22;27405;53.316;-6.294;2023-05-20T08:38:14;16.30;94.00
41720;DHT22;27405;53.316;-6.294;2023-05-20T08:40:40;16.30;94.00
41720;DHT22;27405;53.316;-6.294;2023-05-20T08:43:06;16.40;93.90
41720;DHT22;27405;53.316;-6.294;2023-05-20T08:45:32;16.40;93.80
41720;DHT22;27405;53.316;-6.294;2023-05-20T08:47:59;16.50;93.80
41720;DHT22;27405;53.316;-6.294;2023-05-20T08:50:25;16.60;93.70
41720;DHT22;27405;53.316;-6.294;2023-05-20T08:52:52;16.60;93.50
41720;DHT22;27405;53.316;-6.294;2023-05-20T08:55:24;16.60;93.50
41720;DHT22;27405;53.316;-6.294;2023-05-20T08:57:52;16.60;93.40
41720;DHT22;27405;53.316;-6.294;2023-05-20T09:00:20;16.60;93.40
41720;DHT22;27405;53.316;-6.294;2023-05-20T09:02:47;16.70;93.30
41720;DHT22;27405;53.316;-6.294;2023-05-20T09:05:13;16.70;93.30
41720;DHT22;27405;53.316;-6.294;2023-05-20T09:07:39;16.80;93.20
41720;DHT22;27405;53.316;-6.294;2023-05-20T09:10:07;16.70;93.10
41720;DHT22;27405;53.316;-6.294;2023-05-20T09:12:34;16.70;93.00
41720;DHT22;27405;53.316;-6.294;2023-05-20T09:15:00;16.70;92.90
41720;DHT22;27405;53.316;-6.294;2023-05-20T09:17:26;16.70;92.80
41720;DHT22;27405;53.316;-6.294;2023-05-20T09:19:54;16.70;92.90
41720;DHT22;27405;53.316;-6.294;2023-05-20T09:22:26;16.80;92.90
41720;DHT22;27405;53.316;-6.294;2023-05-20T09:24:52;16.80;92.80
41720;DHT22;27405;53.316;-6.294;2023-05-20T09:27:19;16.90;92.70
41720;DHT22;27405;53.316;-6.294;2023-05-20T09:29:49;16.80;92.50
41720;DHT22;27405;53.316;-6.294;2023-05-20T09:32:16;16.90;92.50
41720;DHT22;27405;53.316;-6.294;2023-05-20T09:34:42;16.90;92.40
41720;DHT22;27405;53.316;-6.294;2023-05-20T09:37:10;17.00;92.40
41720;DHT22;27405;53.316;-6.294;2023-05-20T09:40:05;17.10;92.30
41720;DHT22;27405;53.316;-6.294;2023-05-20T09:42:55;17.20;92.00
41720;DHT22;27405;53.316;-6.294;2023-05-20T09:45:22;17.30;91.90
41720;DHT22;27405;53.316;-6.294;2023-05-20T09:47:53;17.40;91.90
41720;DHT22;27405;53.316;-6.294;2023-05-20T09:50:20;17.40;91.70
41720;DHT22;27405;53.316;-6.294;2023-05-20T09:52:47;17.50;91.70
41720;DHT22;27405;53.316;-6.294;2023-05-20T09:55:20;17.50;91.50
41720;DHT22;27405;53.316;-6.294;2023-05-20T09:57:46;17.50;91.50
41720;DHT22;27405;53.316;-6.294;2023-05-20T10:00:13;17.60;91.50
41720;DHT22;27405;53.316;-6.294;2023-05-20T10:02:49;17.50;91.40
41720;DHT22;27405;53.316;-6.294;2023-05-20T10:05:20;17.60;91.20
41720;DHT22;27405;53.316;-6.294;2023-05-20T10:11:02;17.70;91.10
41720;DHT22;27405;53.316;-6.294;2023-05-20T10:18:54;17.80;90.60
41720;DHT22;27405;53.316;-6.294;2023-05-20T10:21:22;17.90;90.40
41720;DHT22;27405;53.316;-6.294;2023-05-20T10:23:51;17.90;90.40
41720;DHT22;27405;53.316;-6.294;2023-05-20T10:26:17;18.00;90.30
41720;DHT22;27405;53.316;-6.294;2023-05-20T10:28:45;18.00;90.10
41720;DHT22;27405;53.316;-6.294;2023-05-20T10:31:15;18.10;90.10
41720;DHT22;27405;53.316;-6.294;2023-05-20T10:33:43;18.20;90.00
41720;DHT22;27405;53.316;-6.294;2023-05-20T10:36:09;18.20;90.00
41720;DHT22;27405;53.316;-6.294;2023-05-20T10:38:35;18.30;89.60
41720;DHT22;27405;53.316;-6.294;2023-05-20T10:41:08;18.30;89.30
41720;DHT22;27405;53.316;-6.294;2023-05-20T10:43:35;18.40;88.90
41720;DHT22;27405;53.316;-6.294;2023-05-20T10:46:01;18.30;88.10
41720;DHT22;27405;53.316;-6.294;2023-05-20T10:48:31;18.40;88.40
41720;DHT22;27405;53.316;-6.294;2023-05-20T10:51:01;18.40;88.30
41720;DHT22;27405;53.316;-6.294;2023-05-20T10:53:38;18.50;88.30
41720;DHT22;27405;53.316;-6.294;2023-05-20T10:56:04;18.60;88.30
41720;DHT22;27405;53.316;-6.294;2023-05-20T10:58:38;18.70;88.30
41720;DHT22;27405;53.316;-6.294;2023-05-20T11:01:04;18.80;88.00
41720;DHT22;27405;53.316;-6.294;2023-05-20T11:03:30;18.90;88.40
41720;DHT22;27405;53.316;-6.294;2023-05-20T11:05:56;19.00;87.70
41720;DHT22;27405;53.316;-6.294;2023-05-20T11:08:21;19.00;87.30
41720;DHT22;27405;53.316;-6.294;2023-05-20T11:10:47;19.00;87.00
41720;DHT22;27405;53.316;-6.294;2023-05-20T11:13:13;19.10;87.00
41720;DHT22;27405;53.316;-6.294;2023-05-20T11:15:41;19.10;87.20
41720;DHT22;27405;53.316;-6.294;2023-05-20T11:18:07;19.10;87.20
41720;DHT22;27405;53.316;-6.294;2023-05-20T11:20:35;19.00;87.20
41720;DHT22;27405;53.316;-6.294;2023-05-20T11:23:01;19.10;87.10
41720;DHT22;27405;53.316;-6.294;2023-05-20T11:25:28;19.10;87.10
41720;DHT22;27405;53.316;-6.294;2023-05-20T11:27:53;19.10;86.80
41720;DHT22;27405;53.316;-6.294;2023-05-20T11:30:20;19.10;87.00
41720;DHT22;27405;53.316;-6.294;2023-05-20T11:33:02;19.20;86.80
41720;DHT22;27405;53.316;-6.294;2023-05-20T11:35:29;19.20;86.80
41720;DHT22;27405;53.316;-6.294;2023-05-20T11:38:04;19.20;86.70
41720;DHT22;27405;53.316;-6.294;2023-05-20T11:40:31;19.20;86.50
41720;DHT22;27405;53.316;-6.294;2023-05-20T11:43:00;19.20;86.30
41720;DHT22;27405;53.316;-6.294;2023-05-20T11:45:37;19.20;86.50
41720;DHT22;27405;53.316;-6.294;2023-05-20T11:48:03;19.20;86.40
41720;DHT22;27405;53.316;-6.294;2023-05-20T11:50:40;19.20;86.40
41720;DHT22;27405;53.316;-6.294;2023-05-20T11:53:17;19.10;86.40
41720;DHT22;27405;53.316;-6.294;2023-05-20T11:55:52;19.20;86.20
41720;DHT22;27405;53.316;-6.294;2023-05-20T11:58:26;19.20;86.20
41720;DHT22;27405;53.316;-6.294;2023-05-20T12:00:53;19.20;86.00
41720;DHT22;27405;53.316;-6.294;2023-05-20T12:03:19;19.20;86.10
41720;DHT22;27405;53.316;-6.294;2023-05-20T12:05:45;19.30;86.20
41720;DHT22;27405;53.316;-6.294;2023-05-20T12:08:12;19.40;85.90
41720;DHT22;27405;53.316;-6.294;2023-05-20T12:10:38;19.40;86.00
41720;DHT22;27405;53.316;-6.294;2023-05-20T12:13:04;19.50;86.00
41720;DHT22;27405;53.316;-6.294;2023-05-20T12:15:34;19.40;86.00
41720;DHT22;27405;53.316;-6.294;2023-05-20T12:18:00;19.30;86.20
41720;DHT22;27405;53.316;-6.294;2023-05-20T12:20:26;19.30;86.30
41720;DHT22;27405;53.316;-6.294;2023-05-20T12:22:51;19.20;86.70
41720;DHT22;27405;53.316;-6.294;2023-05-20T12:25:18;19.20;87.00
41720;DHT22;27405;53.316;-6.294;2023-05-20T12:27:45;19.20;86.90
41720;DHT22;27405;53.316;-6.294;2023-05-20T12:30:18;19.20;86.70
41720;DHT22;27405;53.316;-6.294;2023-05-20T12:32:45;19.20;86.80
41720;DHT22;27405;53.316;-6.294;2023-05-20T12:35:11;19.20;86.80
41720;DHT22;27405;53.316;-6.294;2023-05-20T12:37:41;19.20;86.70
41720;DHT22;27405;53.316;-6.294;2023-05-20T12:40:08;19.20;86.60
41720;DHT22;27405;53.316;-6.294;2023-05-20T12:42:38;19.20;86.40
41720;DHT22;27405;53.316;-6.294;2023-05-20T12:45:04;19.30;86.40
41720;DHT22;27405;53.316;-6.294;2023-05-20T12:47:31;19.40;86.70
41720;DHT22;27405;53.316;-6.294;2023-05-20T12:49:57;19.50;86.20
41720;DHT22;27405;53.316;-6.294;2023-05-20T12:52:23;19.60;86.10
41720;DHT22;27405;53.316;-6.294;2023-05-20T12:54:49;19.60;86.30
41720;DHT22;27405;53.316;-6.294;2023-05-20T12:57:14;19.70;86.30
41720;DHT22;27405;53.316;-6.294;2023-05-20T12:59:40;19.80;86.10
41720;DHT22;27405;53.316;-6.294;2023-05-20T13:02:06;19.80;86.10
41720;DHT22;27405;53.316;-6.294;2023-05-20T13:04:32;19.80;85.80
41720;DHT22;27405;53.316;-6.294;2023-05-20T13:06:57;19.90;85.40
41720;DHT22;27405;53.316;-6.294;2023-05-20T13:09:23;20.00;85.40
41720;DHT22;27405;53.316;-6.294;2023-05-20T13:11:49;20.00;85.40
41720;DHT22;27405;53.316;-6.294;2023-05-20T13:14:15;20.10;85.10
41720;DHT22;27405;53.316;-6.294;2023-05-20T13:16:40;20.10;85.10
41720;DHT22;27405;53.316;-6.294;2023-05-20T13:19:06;20.20;84.50
41720;DHT22;27405;53.316;-6.294;2023-05-20T13:21:32;20.20;84.70
41720;DHT22;27405;53.316;-6.294;2023-05-20T13:23:58;20.30;84.00
41720;DHT22;27405;53.316;-6.294;2023-05-20T13:26:25;20.30;83.50
41720;DHT22;27405;53.316;-6.294;2023-05-20T13:28:51;20.30;83.20
41720;DHT22;27405;53.316;-6.294;2023-05-20T13:31:16;20.30;82.90
41720;DHT22;27405;53.316;-6.294;2023-05-20T13:33:42;20.30;82.90
41720;DHT22;27405;53.316;-6.294;2023-05-20T13:36:08;20.30;82.30
41720;DHT22;27405;53.316;-6.294;2023-05-20T13:38:34;20.30;82.40
41720;DHT22;27405;53.316;-6.294;2023-05-20T13:41:00;20.30;82.40
41720;DHT22;27405;53.316;-6.294;2023-05-20T13:43:26;20.20;82.10
41720;DHT22;27405;53.316;-6.294;2023-05-20T13:45:53;20.20;82.20
41720;DHT22;27405;53.316;-6.294;2023-05-20T13:48:18;20.20;82.30
41720;DHT22;27405;53.316;-6.294;2023-05-20T13:50:44;20.20;82.00
41720;DHT22;27405;53.316;-6.294;2023-05-20T13:53:10;20.20;81.80
41720;DHT22;27405;53.316;-6.294;2023-05-20T13:55:38;20.20;81.90
41720;DHT22;27405;53.316;-6.294;2023-05-20T13:58:04;20.30;82.00
41720;DHT22;27405;53.316;-6.294;2023-05-20T14:00:36;20.30;81.70
41720;DHT22;27405;53.316;-6.294;2023-05-20T14:03:02;20.30;81.40
41720;DHT22;27405;53.316;-6.294;2023-05-20T14:05:33;20.30;81.10
41720;DHT22;27405;53.316;-6.294;2023-05-20T14:07:59;20.40;81.00
41720;DHT22;27405;53.316;-6.294;2023-05-20T14:10:25;20.40;81.00
41720;DHT22;27405;53.316;-6.294;2023-05-20T14:12:51;20.40;81.00
41720;DHT22;27405;53.316;-6.294;2023-05-20T14:15:17;20.50;80.90
41720;DHT22;27405;53.316;-6.294;2023-05-20T14:17:43;20.50;80.90
41720;DHT22;27405;53.316;-6.294;2023-05-20T14:20:09;20.40;80.80
41720;DHT22;27405;53.316;-6.294;2023-05-20T14:22:35;20.40;80.80
41720;DHT22;27405;53.316;-6.294;2023-05-20T14:25:01;20.40;80.80
41720;DHT22;27405;53.316;-6.294;2023-05-20T14:27:28;20.30;81.00
41720;DHT22;27405;53.316;-6.294;2023-05-20T14:29:53;20.30;80.90
41720;DHT22;27405;53.316;-6.294;2023-05-20T14:32:19;20.30;80.90
41720;DHT22;27405;53.316;-6.294;2023-05-20T14:34:45;20.20;80.80
41720;DHT22;27405;53.316;-6.294;2023-05-20T14:37:10;20.20;81.30
41720;DHT22;27405;53.316;-6.294;2023-05-20T14:39:36;20.20;80.90
41720;DHT22;27405;53.316;-6.294;2023-05-20T14:42:02;20.20;81.10
41720;DHT22;27405;53.316;-6.294;2023-05-20T14:44:29;20.20;81.10
41720;DHT22;27405;53.316;-6.294;2023-05-20T14:46:54;20.20;80.70
41720;DHT22;27405;53.316;-6.294;2023-05-20T14:49:20;20.20;80.70
41720;DHT22;27405;53.316;-6.294;2023-05-20T14:51:46;20.10;80.60
41720;DHT22;27405;53.316;-6.294;2023-05-20T14:54:12;20.10;80.70
41720;DHT22;27405;53.316;-6.294;2023-05-20T14:56:39;20.10;80.50
41720;DHT22;27405;53.316;-6.294;2023-05-20T14:59:05;20.00;80.40
41720;DHT22;27405;53.316;-6.294;2023-05-20T15:01:32;19.90;80.30
41720;DHT22;27405;53.316;-6.294;2023-05-20T15:03:58;19.90;80.20
41720;DHT22;27405;53.316;-6.294;2023-05-20T15:06:24;19.80;80.10
41720;DHT22;27405;53.316;-6.294;2023-05-20T15:08:50;19.70;79.90
41720;DHT22;27405;53.316;-6.294;2023-05-20T15:11:16;19.70;79.90
41720;DHT22;27405;53.316;-6.294;2023-05-20T15:13:42;19.60;80.00
41720;DHT22;27405;53.316;-6.294;2023-05-20T15:16:10;19.60;80.50
41720;DHT22;27405;53.316;-6.294;2023-05-20T15:18:36;19.60;80.60
41720;DHT22;27405;53.316;-6.294;2023-05-20T15:21:02;19.60;80.50